sensor_id;sensor_type;location;lat;lon;timestamp;P1;durP1;ratioP1;P2;durP2;ratioP2
75990;SDS011;64673;52.276;10.560;2023-07-13T00:00:27;5.15;;;2.35;;
75990;SDS011;64673;52.276;10.560;2023-07-13T00:02:52;3.63;;;1.75;;
75990;SDS011;64673;52.276;10.560;2023-07-13T00:05:19;4.40;;;1.90;;
75990;SDS011;64673;52.276;10.560;2023-07-13T00:07:45;2.83;;;1.75;;
75990;SDS011;64673;52.276;10.560;2023-07-13T00:10:11;3.15;;;1.92;;
75990;SDS011;64673;52.276;10.560;2023-07-13T00:12:37;2.95;;;2.15;;
75990;SDS011;64673;52.276;10.560;2023-07-13T00:15:05;5.13;;;1.95;;
75990;SDS011;64673;52.276;10.560;2023-07-13T00:17:36;6.60;;;2.45;;
75990;SDS011;64673;52.276;10.560;2023-07-13T00:20:03;3.70;;;1.77;;
75990;SDS011;64673;52.276;10.560;2023-07-13T00:22:29;4.22;;;2.05;;
75990;SDS011;64673;52.276;10.560;2023-07-13T00:24:55;2.75;;;2.05;;
75990;SDS011;64673;52.276;10.560;2023-07-13T00:27:23;4.03;;;2.03;;
75990;SDS011;64673;52.276;10.560;2023-07-13T00:29:51;3.35;;;1.95;;
75990;SDS011;64673;52.276;10.560;2023-07-13T00:32:17;3.50;;;2.53;;
75990;SDS011;64673;52.276;10.560;2023-07-13T00:34:43;4.70;;;2.55;;
75990;SDS011;64673;52.276;10.560;2023-07-13T00:37:09;3.42;;;1.90;;
75990;SDS011;64673;52.276;10.560;2023-07-13T00:39:34;3.75;;;2.70;;
75990;SDS011;64673;52.276;10.560;2023-07-13T00:42:01;4.53;;;2.63;;
75990;SDS011;64673;52.276;10.560;2023-07-13T00:44:27;5.05;;;2.13;;
75990;SDS011;64673;52.276;10.560;2023-07-13T00:46:53;3.55;;;2.38;;
75990;SDS011;64673;52.276;10.560;2023-07-13T00:49:22;4.15;;;2.40;;
75990;SDS011;64673;52.276;10.560;2023-07-13T00:54:30;6.32;;;2.28;;
75990;SDS011;64673;52.276;10.560;2023-07-13T00:57:00;3.53;;;2.03;;
75990;SDS011;64673;52.276;10.560;2023-07-13T00:59:28;3.28;;;1.90;;
75990;SDS011;64673;52.276;10.560;2023-07-13T01:01:55;5.07;;;2.00;;
75990;SDS011;64673;52.276;10.560;2023-07-13T01:04:22;2.70;;;1.90;;
75990;SDS011;64673;52.276;10.560;2023-07-13T01:06:49;3.95;;;2.00;;
75990;SDS011;64673;52.276;10.560;2023-07-13T01:09:15;6.35;;;2.15;;
75990;SDS011;64673;52.276;10.560;2023-07-13T01:11:41;4.40;;;1.92;;
75990;SDS011;64673;52.276;10.560;2023-07-13T01:14:07;3.97;;;2.00;;
75990;SDS011;64673;52.276;10.560;2023-07-13T01:16:34;3.75;;;1.80;;
75990;SDS011;64673;52.276;10.560;2023-07-13T01:19:01;3.20;;;1.88;;
75990;SDS011;64673;52.276;10.560;2023-07-13T01:21:29;4.90;;;2.33;;
75990;SDS011;64673;52.276;10.560;2023-07-13T01:23:57;3.92;;;2.42;;
75990;SDS011;64673;52.276;10.560;2023-07-13T01:26:23;4.90;;;2.33;;
75990;SDS011;64673;52.276;10.560;2023-07-13T01:28:48;5.72;;;2.35;;
75990;SDS011;64673;52.276;10.560;2023-07-13T01:31:14;3.08;;;2.45;;
75990;SDS011;64673;52.276;10.560;2023-07-13T01:33:39;4.70;;;2.28;;
75990;SDS011;64673;52.276;10.560;2023-07-13T01:36:06;6.45;;;2.30;;
75990;SDS011;64673;52.276;10.560;2023-07-13T01:38:33;5.32;;;2.20;;
75990;SDS011;64673;52.276;10.560;2023-07-13T01:41:00;5.13;;;2.35;;
75990;SDS011;64673;52.276;10.560;2023-07-13T01:43:25;4.20;;;2.05;;
75990;SDS011;64673;52.276;10.560;2023-07-13T01:45:51;4.30;;;2.47;;
75990;SDS011;64673;52.276;10.560;2023-07-13T01:48:16;3.40;;;2.08;;
75990;SDS011;64673;52.276;10.560;2023-07-13T01:50:41;4.90;;;2.35;;
75990;SDS011;64673;52.276;10.560;2023-07-13T01:53:07;4.32;;;2.20;;
75990;SDS011;64673;52.276;10.560;2023-07-13T01:55:33;3.17;;;2.15;;
75990;SDS011;64673;52.276;10.560;2023-07-13T01:57:58;3.60;;;2.30;;
75990;SDS011;64673;52.276;10.560;2023-07-13T02:00:24;4.50;;;2.50;;
75990;SDS011;64673;52.276;10.560;2023-07-13T02:02:49;5.35;;;2.65;;
75990;SDS011;64673;52.276;10.560;2023-07-13T02:05:15;5.32;;;2.70;;
75990;SDS011;64673;52.276;10.560;2023-07-13T02:07:41;5.25;;;2.30;;
75990;SDS011;64673;52.276;10.560;2023-07-13T02:10:07;3.28;;;2.22;;
75990;SDS011;64673;52.276;10.560;2023-07-13T02:14:59;5.87;;;3.03;;
75990;SDS011;64673;52.276;10.560;2023-07-13T02:17:25;4.57;;;2.67;;
75990;SDS011;64673;52.276;10.560;2023-07-13T02:19:51;5.00;;;2.55;;
75990;SDS011;64673;52.276;10.560;2023-07-13T02:22:17;3.35;;;2.58;;
75990;SDS011;64673;52.276;10.560;2023-07-13T02:24:42;4.43;;;2.78;;
75990;SDS011;64673;52.276;10.560;2023-07-13T02:27:08;5.07;;;2.60;;
75990;SDS011;64673;52.276;10.560;2023-07-13T02:29:33;4.07;;;2.70;;
75990;SDS011;64673;52.276;10.560;2023-07-13T02:31:58;4.60;;;2.22;;
75990;SDS011;64673;52.276;10.560;2023-07-13T02:34:25;4.45;;;2.33;;
75990;SDS011;64673;52.276;10.560;2023-07-13T02:36:50;3.72;;;2.47;;
75990;SDS011;64673;52.276;10.560;2023-07-13T02:39:16;4.50;;;2.58;;
75990;SDS011;64673;52.276;10.560;2023-07-13T02:41:41;5.05;;;2.70;;
75990;SDS011;64673;52.276;10.560;2023-07-13T02:44:07;5.15;;;2.97;;
75990;SDS011;64673;52.276;10.560;2023-07-13T02:46:34;5.25;;;2.72;;
75990;SDS011;64673;52.276;10.560;2023-07-13T02:49:01;4.47;;;2.22;;
75990;SDS011;64673;52.276;10.560;2023-07-13T02:51:26;5.03;;;2.53;;
75990;SDS011;64673;52.276;10.560;2023-07-13T02:53:52;4.32;;;2.70;;
75990;SDS011;64673;52.276;10.560;2023-07-13T02:56:19;4.70;;;2.88;;
75990;SDS011;64673;52.276;10.560;2023-07-13T02:58:47;3.92;;;2.33;;
75990;SDS011;64673;52.276;10.560;2023-07-13T03:01:14;5.85;;;3.00;;
75990;SDS011;64673;52.276;10.560;2023-07-13T03:03:43;3.50;;;2.10;;
75990;SDS011;64673;52.276;10.560;2023-07-13T03:08:36;5.97;;;2.42;;
75990;SDS011;64673;52.276;10.560;2023-07-13T03:11:03;5.65;;;2.53;;
75990;SDS011;64673;52.276;10.560;2023-07-13T03:13:33;4.57;;;2.35;;
75990;SDS011;64673;52.276;10.560;2023-07-13T03:15:58;5.13;;;2.70;;
75990;SDS011;64673;52.276;10.560;2023-07-13T03:18:25;4.03;;;2.42;;
75990;SDS011;64673;52.276;10.560;2023-07-13T03:20:52;4.63;;;3.00;;
75990;SDS011;64673;52.276;10.560;2023-07-13T03:23:18;5.05;;;2.35;;
75990;SDS011;64673;52.276;10.560;2023-07-13T03:25:43;5.03;;;2.47;;
75990;SDS011;64673;52.276;10.560;2023-07-13T03:28:10;6.28;;;2.63;;
75990;SDS011;64673;52.276;10.560;2023-07-13T03:30:36;5.50;;;2.60;;
75990;SDS011;64673;52.276;10.560;2023-07-13T03:33:01;4.97;;;2.85;;
75990;SDS011;64673;52.276;10.560;2023-07-13T03:35:26;4.90;;;3.15;;
75990;SDS011;64673;52.276;10.560;2023-07-13T03:37:52;3.72;;;2.60;;
75990;SDS011;64673;52.276;10.560;2023-07-13T03:40:17;4.40;;;2.63;;
75990;SDS011;64673;52.276;10.560;2023-07-13T03:42:43;6.38;;;3.25;;
75990;SDS011;64673;52.276;10.560;2023-07-13T03:45:08;4.97;;;2.70;;
75990;SDS011;64673;52.276;10.560;2023-07-13T03:47:34;5.82;;;2.70;;
75990;SDS011;64673;52.276;10.560;2023-07-13T03:50:00;5.60;;;3.00;;
75990;SDS011;64673;52.276;10.560;2023-07-13T03:52:26;5.05;;;2.53;;
75990;SDS011;64673;52.276;10.560;2023-07-13T03:54:51;5.80;;;2.88;;
75990;SDS011;64673;52.276;10.560;2023-07-13T03:57:18;4.47;;;2.60;;
75990;SDS011;64673;52.276;10.560;2023-07-13T03:59:44;4.53;;;2.58;;
75990;SDS011;64673;52.276;10.560;2023-07-13T04:02:10;3.45;;;2.67;;
75990;SDS011;64673;52.276;10.560;2023-07-13T04:04:35;5.38;;;2.60;;
75990;SDS011;64673;52.276;10.560;2023-07-13T04:07:00;7.63;;;2.33;;
75990;SDS011;64673;52.276;10.560;2023-07-13T04:09:26;6.25;;;2.28;;
75990;SDS011;64673;52.276;10.560;2023-07-13T04:11:51;4.95;;;2.38;;
75990;SDS011;64673;52.276;10.560;2023-07-13T04:14:17;3.47;;;1.83;;
75990;SDS011;64673;52.276;10.560;2023-07-13T04:16:42;3.58;;;2.10;;
75990;SDS011;64673;52.276;10.560;2023-07-13T04:19:08;4.43;;;1.90;;
75990;SDS011;64673;52.276;10.560;2023-07-13T04:21:35;5.22;;;2.20;;
75990;SDS011;64673;52.276;10.560;2023-07-13T04:24:01;4.00;;;2.28;;
75990;SDS011;64673;52.276;10.560;2023-07-13T04:26:27;4.18;;;2.15;;
75990;SDS011;64673;52.276;10.560;2023-07-13T04:28:53;4.05;;;2.10;;
75990;SDS011;64673;52.276;10.560;2023-07-13T04:31:19;3.70;;;2.03;;
75990;SDS011;64673;52.276;10.560;2023-07-13T04:33:44;3.88;;;1.98;;
75990;SDS011;64673;52.276;10.560;2023-07-13T04:36:10;3.47;;;2.42;;
75990;SDS011;64673;52.276;10.560;2023-07-13T04:38:36;5.60;;;2.00;;
75990;SDS011;64673;52.276;10.560;2023-07-13T04:41:03;6.60;;;2.35;;
75990;SDS011;64673;52.276;10.560;2023-07-13T04:43:31;3.75;;;2.38;;
75990;SDS011;64673;52.276;10.560;2023-07-13T04:46:02;3.85;;;2.05;;
75990;SDS011;64673;52.276;10.560;2023-07-13T04:48:36;3.38;;;2.03;;
75990;SDS011;64673;52.276;10.560;2023-07-13T04:51:02;5.40;;;2.00;;
75990;SDS011;64673;52.276;10.560;2023-07-13T04:53:28;3.53;;;2.05;;
75990;SDS011;64673;52.276;10.560;2023-07-13T04:55:54;5.88;;;2.35;;
75990;SDS011;64673;52.276;10.560;2023-07-13T04:58:21;4.55;;;2.00;;
75990;SDS011;64673;52.276;10.560;2023-07-13T05:00:47;4.20;;;2.03;;
75990;SDS011;64673;52.276;10.560;2023-07-13T05:03:13;6.47;;;1.90;;
75990;SDS011;64673;52.276;10.560;2023-07-13T05:05:38;3.40;;;1.58;;
75990;SDS011;64673;52.276;10.560;2023-07-13T05:08:03;4.65;;;1.70;;
75990;SDS011;64673;52.276;10.560;2023-07-13T05:10:29;4.28;;;1.73;;
75990;SDS011;64673;52.276;10.560;2023-07-13T05:12:54;4.03;;;2.00;;
75990;SDS011;64673;52.276;10.560;2023-07-13T05:15:21;5.15;;;1.95;;
75990;SDS011;64673;52.276;10.560;2023-07-13T05:17:47;4.82;;;1.88;;
75990;SDS011;64673;52.276;10.560;2023-07-13T05:20:13;3.47;;;1.70;;
75990;SDS011;64673;52.276;10.560;2023-07-13T05:22:39;2.75;;;1.48;;
75990;SDS011;64673;52.276;10.560;2023-07-13T05:25:05;3.38;;;1.73;;
75990;SDS011;64673;52.276;10.560;2023-07-13T05:27:31;3.13;;;1.70;;
75990;SDS011;64673;52.276;10.560;2023-07-13T05:29:57;3.25;;;1.60;;
75990;SDS011;64673;52.276;10.560;2023-07-13T05:32:22;4.25;;;2.33;;
75990;SDS011;64673;52.276;10.560;2023-07-13T05:34:48;3.45;;;1.88;;
75990;SDS011;64673;52.276;10.560;2023-07-13T05:37:13;2.63;;;1.70;;
75990;SDS011;64673;52.276;10.560;2023-07-13T05:39:38;2.92;;;1.52;;
75990;SDS011;64673;52.276;10.560;2023-07-13T05:42:04;5.53;;;1.80;;
75990;SDS011;64673;52.276;10.560;2023-07-13T05:44:30;3.58;;;1.90;;
75990;SDS011;64673;52.276;10.560;2023-07-13T05:46:55;4.65;;;1.88;;
75990;SDS011;64673;52.276;10.560;2023-07-13T05:49:21;4.97;;;2.00;;
75990;SDS011;64673;52.276;10.560;2023-07-13T05:51:47;6.25;;;1.88;;
75990;SDS011;64673;52.276;10.560;2023-07-13T05:54:12;4.60;;;1.25;;
75990;SDS011;64673;52.276;10.560;2023-07-13T05:56:38;5.57;;;1.42;;
75990;SDS011;64673;52.276;10.560;2023-07-13T05:59:03;2.55;;;1.40;;
75990;SDS011;64673;52.276;10.560;2023-07-13T06:01:29;3.80;;;1.50;;
75990;SDS011;64673;52.276;10.560;2023-07-13T06:06:21;2.47;;;1.27;;
75990;SDS011;64673;52.276;10.560;2023-07-13T06:08:46;3.08;;;1.52;;
75990;SDS011;64673;52.276;10.560;2023-07-13T06:11:16;3.72;;;1.52;;
75990;SDS011;64673;52.276;10.560;2023-07-13T06:13:43;4.53;;;1.70;;
75990;SDS011;64673;52.276;10.560;2023-07-13T06:16:09;5.60;;;1.15;;
75990;SDS011;64673;52.276;10.560;2023-07-13T06:18:35;5.72;;;1.23;;
75990;SDS011;64673;52.276;10.560;2023-07-13T06:21:05;4.97;;;1.60;;
75990;SDS011;64673;52.276;10.560;2023-07-13T06:23:32;4.75;;;1.52;;
75990;SDS011;64673;52.276;10.560;2023-07-13T06:25:57;3.78;;;1.67;;
75990;SDS011;64673;52.276;10.560;2023-07-13T06:28:23;6.80;;;1.30;;
75990;SDS011;64673;52.276;10.560;2023-07-13T06:30:48;6.28;;;1.70;;
75990;SDS011;64673;52.276;10.560;2023-07-13T06:33:13;6.05;;;1.55;;
75990;SDS011;64673;52.276;10.560;2023-07-13T06:35:39;2.92;;;1.30;;
75990;SDS011;64673;52.276;10.560;2023-07-13T06:38:04;3.85;;;1.33;;
75990;SDS011;64673;52.276;10.560;2023-07-13T06:40:30;4.30;;;1.70;;
75990;SDS011;64673;52.276;10.560;2023-07-13T06:42:56;8.77;;;1.90;;
75990;SDS011;64673;52.276;10.560;2023-07-13T06:45:21;4.25;;;1.52;;
75990;SDS011;64673;52.276;10.560;2023-07-13T06:47:46;5.25;;;1.67;;
75990;SDS011;64673;52.276;10.560;2023-07-13T06:50:12;6.93;;;1.65;;
75990;SDS011;64673;52.276;10.560;2023-07-13T06:52:37;3.95;;;1.30;;
75990;SDS011;64673;52.276;10.560;2023-07-13T06:55:03;3.13;;;1.25;;
75990;SDS011;64673;52.276;10.560;2023-07-13T06:57:28;5.00;;;1.40;;
75990;SDS011;64673;52.276;10.560;2023-07-13T06:59:53;5.22;;;1.52;;
75990;SDS011;64673;52.276;10.560;2023-07-13T07:02:19;3.88;;;1.55;;
75990;SDS011;64673;52.276;10.560;2023-07-13T07:04:44;3.55;;;1.40;;
75990;SDS011;64673;52.276;10.560;2023-07-13T07:07:09;4.82;;;1.90;;
75990;SDS011;64673;52.276;10.560;2023-07-13T07:09:35;4.53;;;1.45;;
75990;SDS011;64673;52.276;10.560;2023-07-13T07:12:00;4.22;;;1.40;;
75990;SDS011;64673;52.276;10.560;2023-07-13T07:14:25;6.32;;;1.80;;
75990;SDS011;64673;52.276;10.560;2023-07-13T07:16:51;3.88;;;1.80;;
75990;SDS011;64673;52.276;10.560;2023-07-13T07:19:16;5.15;;;1.60;;
75990;SDS011;64673;52.276;10.560;2023-07-13T07:21:41;4.80;;;1.70;;
75990;SDS011;64673;52.276;10.560;2023-07-13T07:24:07;3.85;;;1.52;;
75990;SDS011;64673;52.276;10.560;2023-07-13T07:26:32;4.47;;;1.75;;
75990;SDS011;64673;52.276;10.560;2023-07-13T07:28:58;3.85;;;1.42;;
75990;SDS011;64673;52.276;10.560;2023-07-13T07:31:23;5.72;;;2.03;;
75990;SDS011;64673;52.276;10.560;2023-07-13T07:33:49;5.40;;;1.98;;
75990;SDS011;64673;52.276;10.560;2023-07-13T07:36:17;3.10;;;1.83;;
75990;SDS011;64673;52.276;10.560;2023-07-13T07:38:42;4.80;;;1.70;;
75990;SDS011;64673;52.276;10.560;2023-07-13T07:41:08;5.18;;;1.80;;
75990;SDS011;64673;52.276;10.560;2023-07-13T07:43:34;3.05;;;1.55;;
75990;SDS011;64673;52.276;10.560;2023-07-13T07:46:00;5.68;;;1.60;;
75990;SDS011;64673;52.276;10.560;2023-07-13T07:48:26;3.17;;;1.63;;
75990;SDS011;64673;52.276;10.560;2023-07-13T07:50:51;3.95;;;1.30;;
75990;SDS011;64673;52.276;10.560;2023-07-13T07:53:17;6.53;;;1.70;;
75990;SDS011;64673;52.276;10.560;2023-07-13T07:55:42;4.28;;;1.80;;
75990;SDS011;64673;52.276;10.560;2023-07-13T07:58:07;5.40;;;1.45;;
75990;SDS011;64673;52.276;10.560;2023-07-13T08:00:33;3.97;;;1.30;;
75990;SDS011;64673;52.276;10.560;2023-07-13T08:03:00;3.30;;;1.13;;
75990;SDS011;64673;52.276;10.560;2023-07-13T08:05:26;4.18;;;1.20;;
75990;SDS011;64673;52.276;10.560;2023-07-13T08:07:51;2.97;;;1.27;;
75990;SDS011;64673;52.276;10.560;2023-07-13T08:10:17;4.75;;;1.10;;
75990;SDS011;64673;52.276;10.560;2023-07-13T08:12:42;2.22;;;0.98;;
75990;SDS011;64673;52.276;10.560;2023-07-13T08:15:13;4.63;;;1.10;;
75990;SDS011;64673;52.276;10.560;2023-07-13T08:17:39;4.28;;;1.10;;
75990;SDS011;64673;52.276;10.560;2023-07-13T08:20:05;2.50;;;1.05;;
75990;SDS011;64673;52.276;10.560;2023-07-13T08:22:31;1.35;;;0.80;;
75990;SDS011;64673;52.276;10.560;2023-07-13T08:24:57;3.45;;;0.70;;
75990;SDS011;64673;52.276;10.560;2023-07-13T08:27:23;2.95;;;0.90;;
75990;SDS011;64673;52.276;10.560;2023-07-13T08:29:49;3.35;;;0.80;;
75990;SDS011;64673;52.276;10.560;2023-07-13T08:32:16;4.47;;;0.95;;
75990;SDS011;64673;52.276;10.560;2023-07-13T08:34:43;2.00;;;0.82;;
75990;SDS011;64673;52.276;10.560;2023-07-13T08:37:08;4.45;;;0.73;;
75990;SDS011;64673;52.276;10.560;2023-07-13T08:39:34;6.60;;;1.08;;
75990;SDS011;64673;52.276;10.560;2023-07-13T08:42:01;4.95;;;0.75;;
75990;SDS011;64673;52.276;10.560;2023-07-13T08:44:40;1.13;;;0.73;;
75990;SDS011;64673;52.276;10.560;2023-07-13T08:47:30;4.20;;;1.08;;
75990;SDS011;64673;52.276;10.560;2023-07-13T08:50:00;2.25;;;0.55;;
75990;SDS011;64673;52.276;10.560;2023-07-13T08:52:36;2.40;;;1.23;;
75990;SDS011;64673;52.276;10.560;2023-07-13T08:55:26;2.15;;;1.00;;
75990;SDS011;64673;52.276;10.560;2023-07-13T08:57:59;1.15;;;0.63;;
75990;SDS011;64673;52.276;10.560;2023-07-13T09:00:33;4.18;;;0.95;;
75990;SDS011;64673;52.276;10.560;2023-07-13T09:03:21;3.15;;;0.80;;
75990;SDS011;64673;52.276;10.560;2023-07-13T09:05:51;3.17;;;1.20;;
75990;SDS011;64673;52.276;10.560;2023-07-13T09:08:25;5.00;;;1.20;;
75990;SDS011;64673;52.276;10.560;2023-07-13T09:10:53;2.85;;;1.08;;
75990;SDS011;64673;52.276;10.560;2023-07-13T09:16:04;5.22;;;1.88;;
75990;SDS011;64673;52.276;10.560;2023-07-13T09:18:35;2.88;;;1.08;;
75990;SDS011;64673;52.276;10.560;2023-07-13T09:21:03;2.75;;;0.90;;
75990;SDS011;64673;52.276;10.560;2023-07-13T09:23:30;2.50;;;0.90;;
75990;SDS011;64673;52.276;10.560;2023-07-13T09:26:00;3.17;;;0.70;;
75990;SDS011;64673;52.276;10.560;2023-07-13T09:28:32;2.83;;;1.00;;
75990;SDS011;64673;52.276;10.560;2023-07-13T09:31:10;2.83;;;1.00;;
75990;SDS011;64673;52.276;10.560;2023-07-13T09:33:42;2.75;;;0.73;;
75990;SDS011;64673;52.276;10.560;2023-07-13T09:36:41;3.22;;;1.10;;
75990;SDS011;64673;52.276;10.560;2023-07-13T09:39:04;4.20;;;1.00;;
75990;SDS011;64673;52.276;10.560;2023-07-13T09:44:17;4.28;;;1.13;;
75990;SDS011;64673;52.276;10.560;2023-07-13T09:46:54;2.42;;;1.23;;
75990;SDS011;64673;52.276;10.560;2023-07-13T09:49:26;3.60;;;1.15;;
75990;SDS011;64673;52.276;10.560;2023-07-13T09:52:01;4.57;;;1.35;;
75990;SDS011;64673;52.276;10.560;2023-07-13T09:54:29;3.83;;;0.90;;
75990;SDS011;64673;52.276;10.560;2023-07-13T09:56:55;3.42;;;0.90;;
75990;SDS011;64673;52.276;10.560;2023-07-13T09:59:26;2.80;;;0.95;;
75990;SDS011;64673;52.276;10.560;2023-07-13T10:01:55;1.92;;;0.90;;
75990;SDS011;64673;52.276;10.560;2023-07-13T10:04:22;3.45;;;1.13;;
75990;SDS011;64673;52.276;10.560;2023-07-13T10:07:06;5.53;;;1.10;;
75990;SDS011;64673;52.276;10.560;2023-07-13T10:09:33;3.65;;;1.27;;
75990;SDS011;64673;52.276;10.560;2023-07-13T10:11:59;4.65;;;1.42;;
75990;SDS011;64673;52.276;10.560;2023-07-13T10:14:24;2.53;;;1.20;;
75990;SDS011;64673;52.276;10.560;2023-07-13T10:16:52;3.28;;;1.00;;
75990;SDS011;64673;52.276;10.560;2023-07-13T10:19:25;2.35;;;1.13;;
75990;SDS011;64673;52.276;10.560;2023-07-13T10:21:55;2.67;;;1.20;;
75990;SDS011;64673;52.276;10.560;2023-07-13T10:24:25;2.38;;;1.08;;
75990;SDS011;64673;52.276;10.560;2023-07-13T10:27:00;5.05;;;1.13;;
75990;SDS011;64673;52.276;10.560;2023-07-13T10:29:29;3.20;;;0.90;;
75990;SDS011;64673;52.276;10.560;2023-07-13T10:32:01;2.33;;;0.90;;
75990;SDS011;64673;52.276;10.560;2023-07-13T10:34:27;2.60;;;1.00;;
75990;SDS011;64673;52.276;10.560;2023-07-13T10:36:53;3.30;;;1.63;;
75990;SDS011;64673;52.276;10.560;2023-07-13T10:39:23;2.00;;;0.93;;
75990;SDS011;64673;52.276;10.560;2023-07-13T10:41:57;6.95;;;1.15;;
75990;SDS011;64673;52.276;10.560;2023-07-13T10:44:30;4.63;;;1.30;;
75990;SDS011;64673;52.276;10.560;2023-07-13T10:47:00;1.92;;;0.90;;
75990;SDS011;64673;52.276;10.560;2023-07-13T10:49:30;4.43;;;1.45;;
75990;SDS011;64673;52.276;10.560;2023-07-13T10:51:58;2.60;;;1.10;;
75990;SDS011;64673;52.276;10.560;2023-07-13T10:54:27;4.63;;;1.42;;
75990;SDS011;64673;52.276;10.560;2023-07-13T10:59:35;4.13;;;1.20;;
75990;SDS011;64673;52.276;10.560;2023-07-13T11:04:39;2.95;;;1.20;;
75990;SDS011;64673;52.276;10.560;2023-07-13T11:07:11;3.75;;;1.30;;
75990;SDS011;64673;52.276;10.560;2023-07-13T11:09:44;2.42;;;1.27;;
75990;SDS011;64673;52.276;10.560;2023-07-13T11:14:44;2.85;;;1.13;;
75990;SDS011;64673;52.276;10.560;2023-07-13T11:19:57;4.33;;;1.47;;
75990;SDS011;64673;52.276;10.560;2023-07-13T11:25:32;3.78;;;1.30;;
75990;SDS011;64673;52.276;10.560;2023-07-13T11:30:37;3.85;;;1.70;;
75990;SDS011;64673;52.276;10.560;2023-07-13T11:35:58;2.60;;;1.40;;
75990;SDS011;64673;52.276;10.560;2023-07-13T11:38:41;2.95;;;1.30;;
75990;SDS011;64673;52.276;10.560;2023-07-13T11:43:43;6.07;;;1.38;;
75990;SDS011;64673;52.276;10.560;2023-07-13T11:46:16;4.18;;;1.20;;
75990;SDS011;64673;52.276;10.560;2023-07-13T11:48:47;1.77;;;1.17;;
75990;SDS011;64673;52.276;10.560;2023-07-13T11:53:52;4.00;;;1.23;;
75990;SDS011;64673;52.276;10.560;2023-07-13T11:56:20;4.53;;;1.10;;
75990;SDS011;64673;52.276;10.560;2023-07-13T11:58:48;3.72;;;1.05;;
75990;SDS011;64673;52.276;10.560;2023-07-13T12:01:20;3.17;;;1.30;;
75990;SDS011;64673;52.276;10.560;2023-07-13T12:03:47;3.60;;;1.50;;
75990;SDS011;64673;52.276;10.560;2023-07-13T12:06:27;4.32;;;1.42;;
75990;SDS011;64673;52.276;10.560;2023-07-13T12:08:58;3.25;;;1.05;;
75990;SDS011;64673;52.276;10.560;2023-07-13T12:11:28;2.90;;;1.20;;
75990;SDS011;64673;52.276;10.560;2023-07-13T12:13:54;2.80;;;1.00;;
75990;SDS011;64673;52.276;10.560;2023-07-13T12:16:28;4.22;;;1.23;;
75990;SDS011;64673;52.276;10.560;2023-07-13T12:18:53;3.97;;;0.95;;
75990;SDS011;64673;52.276;10.560;2023-07-13T12:23:49;3.58;;;1.10;;
75990;SDS011;64673;52.276;10.560;2023-07-13T12:26:17;3.47;;;1.30;;
75990;SDS011;64673;52.276;10.560;2023-07-13T12:31:24;3.53;;;1.00;;
75990;SDS011;64673;52.276;10.560;2023-07-13T12:36:56;4.82;;;1.38;;
75990;SDS011;64673;52.276;10.560;2023-07-13T12:42:14;2.33;;;0.80;;
75990;SDS011;64673;52.276;10.560;2023-07-13T12:44:53;1.60;;;0.90;;
75990;SDS011;64673;52.276;10.560;2023-07-13T12:47:25;2.95;;;0.93;;
75990;SDS011;64673;52.276;10.560;2023-07-13T12:49:55;3.85;;;1.20;;
75990;SDS011;64673;52.276;10.560;2023-07-13T12:52:29;2.58;;;1.00;;
75990;SDS011;64673;52.276;10.560;2023-07-13T12:55:02;3.10;;;1.10;;
75990;SDS011;64673;52.276;10.560;2023-07-13T13:00:32;2.42;;;1.00;;
75990;SDS011;64673;52.276;10.560;2023-07-13T13:03:45;4.57;;;1.30;;
75990;SDS011;64673;52.276;10.560;2023-07-13T13:08:43;5.15;;;1.20;;
75990;SDS011;64673;52.276;10.560;2023-07-13T13:11:10;4.72;;;1.02;;
75990;SDS011;64673;52.276;10.560;2023-07-13T13:13:36;4.65;;;1.10;;
75990;SDS011;64673;52.276;10.560;2023-07-13T13:16:11;2.80;;;1.30;;
75990;SDS011;64673;52.276;10.560;2023-07-13T13:18:42;2.58;;;1.23;;
75990;SDS011;64673;52.276;10.560;2023-07-13T13:21:08;2.42;;;1.00;;
75990;SDS011;64673;52.276;10.560;2023-07-13T13:23:34;4.97;;;1.20;;
75990;SDS011;64673;52.276;10.560;2023-07-13T13:26:00;4.15;;;1.10;;
75990;SDS011;64673;52.276;10.560;2023-07-13T13:28:26;3.15;;;1.30;;
75990;SDS011;64673;52.276;10.560;2023-07-13T13:30:51;2.25;;;1.00;;
75990;SDS011;64673;52.276;10.560;2023-07-13T13:33:19;3.63;;;1.30;;
75990;SDS011;64673;52.276;10.560;2023-07-13T13:35:46;2.33;;;0.98;;
75990;SDS011;64673;52.276;10.560;2023-07-13T13:38:12;2.35;;;1.35;;
75990;SDS011;64673;52.276;10.560;2023-07-13T13:40:44;2.05;;;1.27;;
75990;SDS011;64673;52.276;10.560;2023-07-13T13:43:14;4.50;;;1.35;;
75990;SDS011;64673;52.276;10.560;2023-07-13T13:45:43;4.28;;;1.05;;
75990;SDS011;64673;52.276;10.560;2023-07-13T13:48:20;3.67;;;1.27;;
75990;SDS011;64673;52.276;10.560;2023-07-13T13:50:55;2.63;;;1.08;;
75990;SDS011;64673;52.276;10.560;2023-07-13T13:53:21;3.47;;;1.25;;
75990;SDS011;64673;52.276;10.560;2023-07-13T13:55:48;2.85;;;1.30;;
75990;SDS011;64673;52.276;10.560;2023-07-13T13:58:14;2.30;;;1.40;;
75990;SDS011;64673;52.276;10.560;2023-07-13T14:00:39;1.90;;;1.20;;
75990;SDS011;64673;52.276;10.560;2023-07-13T14:03:05;2.72;;;1.10;;
75990;SDS011;64673;52.276;10.560;2023-07-13T14:05:33;5.35;;;1.30;;
75990;SDS011;64673;52.276;10.560;2023-07-13T14:07:58;3.03;;;1.20;;
75990;SDS011;64673;52.276;10.560;2023-07-13T14:10:24;2.75;;;1.30;;
75990;SDS011;64673;52.276;10.560;2023-07-13T14:12:52;6.57;;;1.35;;
75990;SDS011;64673;52.276;10.560;2023-07-13T14:17:45;3.03;;;1.40;;
75990;SDS011;64673;52.276;10.560;2023-07-13T14:20:11;3.97;;;1.30;;
75990;SDS011;64673;52.276;10.560;2023-07-13T14:22:37;5.55;;;1.45;;
75990;SDS011;64673;52.276;10.560;2023-07-13T14:25:03;5.82;;;1.55;;
75990;SDS011;64673;52.276;10.560;2023-07-13T14:27:28;5.13;;;1.60;;
75990;SDS011;64673;52.276;10.560;2023-07-13T14:29:54;3.03;;;1.38;;
75990;SDS011;64673;52.276;10.560;2023-07-13T14:32:19;4.28;;;1.50;;
75990;SDS011;64673;52.276;10.560;2023-07-13T14:34:44;4.63;;;1.38;;
75990;SDS011;64673;52.276;10.560;2023-07-13T14:37:13;3.85;;;1.33;;
75990;SDS011;64673;52.276;10.560;2023-07-13T14:39:42;4.07;;;1.42;;
75990;SDS011;64673;52.276;10.560;2023-07-13T14:42:09;4.13;;;1.65;;
75990;SDS011;64673;52.276;10.560;2023-07-13T14:44:35;3.88;;;1.35;;
75990;SDS011;64673;52.276;10.560;2023-07-13T14:47:02;3.17;;;1.30;;
75990;SDS011;64673;52.276;10.560;2023-07-13T14:54:23;3.78;;;1.50;;
75990;SDS011;64673;52.276;10.560;2023-07-13T14:56:48;2.95;;;1.10;;
75990;SDS011;64673;52.276;10.560;2023-07-13T14:59:14;2.70;;;1.10;;
75990;SDS011;64673;52.276;10.560;2023-07-13T15:01:39;2.83;;;0.88;;
75990;SDS011;64673;52.276;10.560;2023-07-13T15:06:35;2.13;;;1.23;;
75990;SDS011;64673;52.276;10.560;2023-07-13T15:09:27;5.93;;;1.35;;
75990;SDS011;64673;52.276;10.560;2023-07-13T15:11:56;2.35;;;1.23;;
75990;SDS011;64673;52.276;10.560;2023-07-13T15:14:25;2.78;;;1.10;;
75990;SDS011;64673;52.276;10.560;2023-07-13T15:16:51;4.05;;;1.75;;
75990;SDS011;64673;52.276;10.560;2023-07-13T15:19:20;2.72;;;1.52;;
75990;SDS011;64673;52.276;10.560;2023-07-13T15:21:47;5.30;;;1.60;;
75990;SDS011;64673;52.276;10.560;2023-07-13T15:24:13;3.85;;;1.92;;
75990;SDS011;64673;52.276;10.560;2023-07-13T15:26:40;3.05;;;1.83;;
75990;SDS011;64673;52.276;10.560;2023-07-13T15:29:10;2.70;;;1.75;;
75990;SDS011;64673;52.276;10.560;2023-07-13T15:31:36;2.40;;;1.92;;
75990;SDS011;64673;52.276;10.560;2023-07-13T15:34:03;2.53;;;1.58;;
75990;SDS011;64673;52.276;10.560;2023-07-13T15:36:34;3.70;;;1.60;;
75990;SDS011;64673;52.276;10.560;2023-07-13T15:38:59;3.47;;;1.60;;
75990;SDS011;64673;52.276;10.560;2023-07-13T15:41:26;2.88;;;1.92;;